sensor_id;sensor_type;location;lat;lon;timestamp;pressure;altitude;pressure_sealevel;temperature;humidity
11053;BME280;55230;42.602;23.470;2022-10-10T00:02:08;94242.25;;;11.08;100.00
11053;BME280;55230;42.602;23.470;2022-10-10T00:04:35;94245.50;;;11.28;100.00
11053;BME280;55230;42.602;23.470;2022-10-10T00:07:03;94238.56;;;11.27;100.00
11053;BME280;55230;42.602;23.470;2022-10-10T00:09:30;94096.94;;;10.18;100.00
11053;BME280;55230;42.602;23.470;2022-10-10T00:11:57;94180.91;;;10.71;100.00
11053;BME280;55230;42.602;23.470;2022-10-10T00:14:24;94243.34;;;11.23;100.00
11053;BME280;55230;42.602;23.470;2022-10-10T00:16:51;93759.72;;;7.55;100.00
11053;BME280;55230;42.602;23.470;2022-10-10T00:19:17;94282.09;;;11.16;100.00
11053;BME280;55230;42.602;23.470;2022-10-10T00:21:44;93948.78;;;9.11;100.00
11053;BME280;55230;42.602;23.470;2022-10-10T00:24:12;94242.44;;;11.13;100.00
11053;BME280;55230;42.602;23.470;2022-10-10T00:26:39;94243.44;;;11.07;100.00
11053;BME280;55230;42.602;23.470;2022-10-10T00:29:06;93527.63;;;6.29;100.00
11053;BME280;55230;42.602;23.470;2022-10-10T00:31:32;94244.97;;;11.08;100.00
11053;BME280;55230;42.602;23.470;2022-10-10T00:33:59;94243.97;;;11.02;100.00
11053;BME280;55230;42.602;23.470;2022-10-10T00:36:26;94159.63;;;10.47;100.00
11053;BME280;55230;42.602;23.470;2022-10-10T00:38:53;94168.91;;;10.46;100.00
11053;BME280;55230;42.602;23.470;2022-10-10T00:41:21;94245.06;;;11.04;100.00
11053;BME280;55230;42.602;23.470;2022-10-10T00:44:02;94178.72;;;10.40;100.00
11053;BME280;55230;42.602;23.470;2022-10-10T00:46:30;94241.28;;;11.02;100.00
11053;BME280;55230;42.602;23.470;2022-10-10T00:48:56;94238.25;;;11.00;100.00
11053;BME280;55230;42.602;23.470;2022-10-10T00:51:23;94242.03;;;11.02;100.00
11053;BME280;55230;42.602;23.470;2022-10-10T00:53:52;94201.94;;;10.63;100.00
11053;BME280;55230;42.602;23.470;2022-10-10T00:56:25;94169.44;;;10.41;100.00
11053;BME280;55230;42.602;23.470;2022-10-10T00:58:55;94247.88;;;11.01;100.00
11053;BME280;55230;42.602;23.470;2022-10-10T01:01:23;94199.03;;;10.58;100.00
11053;BME280;55230;42.602;23.470;2022-10-10T01:03:50;93976.84;;;9.10;100.00
11053;BME280;55230;42.602;23.470;2022-10-10T01:06:18;94262.84;;;10.89;100.00
11053;BME280;55230;42.602;23.470;2022-10-10T01:08:45;94256.03;;;10.85;100.00
11053;BME280;55230;42.602;23.470;2022-10-10T01:11:26;94193.91;;;10.34;100.00
11053;BME280;55230;42.602;23.470;2022-10-10T01:14:02;94261.34;;;10.88;100.00
11053;BME280;55230;42.602;23.470;2022-10-10T01:16:39;94251.72;;;10.75;100.00
11053;BME280;55230;42.602;23.470;2022-10-10T01:19:31;94266.28;;;10.90;100.00
11053;BME280;55230;42.602;23.470;2022-10-10T01:22:13;94260.13;;;10.89;100.00
11053;BME280;55230;42.602;23.470;2022-10-10T01:24:54;94215.31;;;10.54;100.00
11053;BME280;55230;42.602;23.470;2022-10-10T01:27:28;94264.25;;;10.94;100.00
11053;BME280;55230;42.602;23.470;2022-10-10T01:30:00;94216.19;;;10.64;100.00
11053;BME280;55230;42.602;23.470;2022-10-10T01:32:33;94261.03;;;10.99;100.00
11053;BME280;55230;42.602;23.470;2022-10-10T01:35:27;94260.16;;;11.02;100.00
11053;BME280;55230;42.602;23.470;2022-10-10T01:38:03;94251.19;;;11.05;100.00
11053;BME280;55230;42.602;23.470;2022-10-10T01:40:37;94253.91;;;11.05;100.00
11053;BME280;55230;42.602;23.470;2022-10-10T01:43:06;93811.25;;;8.10;100.00
11053;BME280;55230;42.602;23.470;2022-10-10T01:45:35;94263.72;;;10.99;100.00
11053;BME280;55230;42.602;23.470;2022-10-10T01:48:04;94028.19;;;9.31;100.00
11053;BME280;55230;42.602;23.470;2022-10-10T01:50:36;94127.72;;;10.05;100.00
11053;BME280;55230;42.602;23.470;2022-10-10T01:53:11;94235.91;;;10.61;100.00
11053;BME280;55230;42.602;23.470;2022-10-10T01:55:48;94256.69;;;10.89;100.00
11053;BME280;55230;42.602;23.470;2022-10-10T01:58:22;94252.81;;;10.90;100.00
11053;BME280;55230;42.602;23.470;2022-10-10T02:00:59;94237.78;;;10.76;100.00
11053;BME280;55230;42.602;23.470;2022-10-10T02:03:31;94230.97;;;10.72;100.00
11053;BME280;55230;42.602;23.470;2022-10-10T02:06:02;94253.00;;;10.83;100.00
11053;BME280;55230;42.602;23.470;2022-10-10T02:08:34;94255.72;;;10.83;100.00
11053;BME280;55230;42.602;23.470;2022-10-10T02:11:04;94259.69;;;10.91;100.00
11053;BME280;55230;42.602;23.470;2022-10-10T02:13:36;94204.97;;;10.53;100.00
11053;BME280;55230;42.602;23.470;2022-10-10T02:16:11;94255.84;;;10.92;100.00
11053;BME280;55230;42.602;23.470;2022-10-10T02:18:40;94140.06;;;10.18;100.00
11053;BME280;55230;42.602;23.470;2022-10-10T02:21:10;94333.34;;;11.04;100.00
11053;BME280;55230;42.602;23.470;2022-10-10T02:23:39;94254.88;;;11.11;100.00
11053;BME280;55230;42.602;23.470;2022-10-10T02:26:09;94255.22;;;11.13;100.00
11053;BME280;55230;42.602;23.470;2022-10-10T02:28:41;94251.97;;;11.18;100.00
11053;BME280;55230;42.602;23.470;2022-10-10T02:31:15;94308.34;;;11.16;100.00
11053;BME280;55230;42.602;23.470;2022-10-10T02:33:46;94234.78;;;10.99;100.00
11053;BME280;55230;42.602;23.470;2022-10-10T02:36:17;94215.03;;;10.90;100.00
11053;BME280;55230;42.602;23.470;2022-10-10T02:38:46;94197.75;;;10.87;100.00
11053;BME280;55230;42.602;23.470;2022-10-10T02:41:16;94268.47;;;11.32;100.00
11053;BME280;55230;42.602;23.470;2022-10-10T02:43:44;94267.63;;;11.35;100.00
11053;BME280;55230;42.602;23.470;2022-10-10T02:46:12;94259.09;;;11.37;100.00
11053;BME280;55230;42.602;23.470;2022-10-10T02:48:40;94263.97;;;11.42;100.00
11053;BME280;55230;42.602;23.470;2022-10-10T02:51:07;94262.75;;;11.43;100.00
11053;BME280;55230;42.602;23.470;2022-10-10T02:53:35;94261.78;;;11.49;100.00
11053;BME280;55230;42.602;23.470;2022-10-10T02:56:03;94062.53;;;10.10;100.00
11053;BME280;55230;42.602;23.470;2022-10-10T02:58:30;94147.47;;;10.68;100.00
11053;BME280;55230;42.602;23.470;2022-10-10T03:00:56;94157.84;;;10.70;100.00
11053;BME280;55230;42.602;23.470;2022-10-10T03:03:24;94121.25;;;10.43;100.00
11053;BME280;55230;42.602;23.470;2022-10-10T03:05:51;93793.63;;;8.26;100.00
11053;BME280;55230;42.602;23.470;2022-10-10T03:08:18;93786.06;;;8.20;100.00
11053;BME280;55230;42.602;23.470;2022-10-10T03:10:53;94261.78;;;11.24;100.00
11053;BME280;55230;42.602;23.470;2022-10-10T03:13:21;94270.97;;;11.27;100.00
11053;BME280;55230;42.602;23.470;2022-10-10T03:15:48;94270.66;;;11.25;100.00
11053;BME280;55230;42.602;23.470;2022-10-10T03:18:14;94182.84;;;10.58;100.00
11053;BME280;55230;42.602;23.470;2022-10-10T03:20:45;94293.88;;;11.22;100.00
11053;BME280;55230;42.602;23.470;2022-10-10T03:23:11;94014.22;;;9.49;100.00
11053;BME280;55230;42.602;23.470;2022-10-10T03:25:42;94276.81;;;11.13;100.00
11053;BME280;55230;42.602;23.470;2022-10-10T03:28:09;94297.06;;;11.05;100.00
11053;BME280;55230;42.602;23.470;2022-10-10T03:30:36;94049.72;;;9.44;100.00
11053;BME280;55230;42.602;23.470;2022-10-10T03:33:03;94277.41;;;10.92;100.00
11053;BME280;55230;42.602;23.470;2022-10-10T03:35:30;94276.22;;;10.80;100.00
11053;BME280;55230;42.602;23.470;2022-10-10T03:37:58;94278.47;;;10.82;100.00
11053;BME280;55230;42.602;23.470;2022-10-10T03:40:26;94271.13;;;10.70;100.00
11053;BME280;55230;42.602;23.470;2022-10-10T03:42:53;94080.38;;;9.34;100.00
11053;BME280;55230;42.602;23.470;2022-10-10T03:45:20;94268.63;;;10.63;100.00
11053;BME280;55230;42.602;23.470;2022-10-10T03:47:47;94267.28;;;10.55;100.00
11053;BME280;55230;42.602;23.470;2022-10-10T03:50:14;94269.97;;;10.55;100.00
11053;BME280;55230;42.602;23.470;2022-10-10T03:52:40;94160.28;;;9.82;100.00
11053;BME280;55230;42.602;23.470;2022-10-10T03:55:09;94271.88;;;10.41;100.00
11053;BME280;55230;42.602;23.470;2022-10-10T03:57:35;94288.94;;;10.38;100.00
11053;BME280;55230;42.602;23.470;2022-10-10T04:00:02;94188.81;;;9.79;100.00
11053;BME280;55230;42.602;23.470;2022-10-10T04:02:29;94175.84;;;9.46;100.00
11053;BME280;55230;42.602;23.470;2022-10-10T04:04:56;93920.44;;;7.69;100.00
11053;BME280;55230;42.602;23.470;2022-10-10T04:07:23;93842.75;;;7.10;100.00
11053;BME280;55230;42.602;23.470;2022-10-10T04:09:50;94270.69;;;9.98;100.00
11053;BME280;55230;42.602;23.470;2022-10-10T04:12:18;94310.50;;;10.06;100.00
11053;BME280;55230;42.602;23.470;2022-10-10T04:14:45;94279.03;;;10.03;100.00
11053;BME280;55230;42.602;23.470;2022-10-10T04:17:12;94272.78;;;10.06;100.00
11053;BME280;55230;42.602;23.470;2022-10-10T04:19:38;94275.91;;;10.05;100.00
11053;BME280;55230;42.602;23.470;2022-10-10T04:22:05;94256.66;;;9.90;100.00
11053;BME280;55230;42.602;23.470;2022-10-10T04:26:59;94258.50;;;9.77;100.00
11053;BME280;55230;42.602;23.470;2022-10-10T04:29:27;94190.56;;;9.09;100.00
11053;BME280;55230;42.602;23.470;2022-10-10T04:31:54;94277.03;;;9.91;100.00
11053;BME280;55230;42.602;23.470;2022-10-10T04:34:21;94286.78;;;9.21;100.00
11053;BME280;55230;42.602;23.470;2022-10-10T04:36:48;94351.03;;;9.87;100.00
11053;BME280;55230;42.602;23.470;2022-10-10T04:39:14;93642.22;;;5.62;100.00
11053;BME280;55230;42.602;23.470;2022-10-10T04:41:41;94280.72;;;9.97;100.00
11053;BME280;55230;42.602;23.470;2022-10-10T04:44:08;94223.50;;;9.61;100.00
11053;BME280;55230;42.602;23.470;2022-10-10T04:46:36;94291.31;;;10.04;100.00
11053;BME280;55230;42.602;23.470;2022-10-10T04:49:03;94197.94;;;9.53;100.00
11053;BME280;55230;42.602;23.470;2022-10-10T04:51:30;94289.47;;;10.17;100.00
11053;BME280;55230;42.602;23.470;2022-10-10T04:53:58;94258.97;;;10.04;100.00
11053;BME280;55230;42.602;23.470;2022-10-10T04:56:25;94315.31;;;10.31;100.00
11053;BME280;55230;42.602;23.470;2022-10-10T04:58:52;94279.66;;;10.39;100.00
11053;BME280;55230;42.602;23.470;2022-10-10T05:01:19;94284.00;;;10.49;100.00
11053;BME280;55230;42.602;23.470;2022-10-10T05:03:47;94279.94;;;10.58;100.00
11053;BME280;55230;42.602;23.470;2022-10-10T05:06:14;94287.31;;;10.70;100.00
11053;BME280;55230;42.602;23.470;2022-10-10T05:08:40;94300.72;;;10.86;100.00
11053;BME280;55230;42.602;23.470;2022-10-10T05:11:07;94296.06;;;10.86;100.00
11053;BME280;55230;42.602;23.470;2022-10-10T05:13:34;94026.88;;;9.36;100.00
11053;BME280;55230;42.602;23.470;2022-10-10T05:16:01;94356.41;;;11.33;100.00
11053;BME280;55230;42.602;23.470;2022-10-10T05:18:28;94125.97;;;10.39;100.00
11053;BME280;55230;42.602;23.470;2022-10-10T05:20:56;94275.72;;;11.48;100.00
11053;BME280;55230;42.602;23.470;2022-10-10T05:23:22;94313.94;;;12.09;100.00
11053;BME280;55230;42.602;23.470;2022-10-10T05:25:49;94106.13;;;10.21;100.00
11053;BME280;55230;42.602;23.470;2022-10-10T05:28:17;94323.16;;;11.87;100.00
11053;BME280;55230;42.602;23.470;2022-10-10T05:30:43;94249.47;;;11.48;100.00
11053;BME280;55230;42.602;23.470;2022-10-10T05:33:10;94260.06;;;11.30;100.00
11053;BME280;55230;42.602;23.470;2022-10-10T05:35:37;94162.91;;;10.93;100.00
11053;BME280;55230;42.602;23.470;2022-10-10T05:38:05;94312.56;;;11.92;100.00
11053;BME280;55230;42.602;23.470;2022-10-10T05:40:32;94329.84;;;12.07;100.00
11053;BME280;55230;42.602;23.470;2022-10-10T05:42:59;94133.66;;;10.79;100.00
11053;BME280;55230;42.602;23.470;2022-10-10T05:45:26;94334.75;;;12.34;100.00
11053;BME280;55230;42.602;23.470;2022-10-10T05:47:53;94334.09;;;12.64;100.00
11053;BME280;55230;42.602;23.470;2022-10-10T05:50:28;94337.47;;;12.90;100.00
11053;BME280;55230;42.602;23.470;2022-10-10T05:52:56;94311.41;;;13.05;100.00
11053;BME280;55230;42.602;23.470;2022-10-10T05:55:24;94291.00;;;13.13;100.00
11053;BME280;55230;42.602;23.470;2022-10-10T05:57:51;94344.59;;;13.70;100.00
11053;BME280;55230;42.602;23.470;2022-10-10T06:00:18;94339.44;;;13.63;99.85
11053;BME280;55230;42.602;23.470;2022-10-10T06:02:45;94347.28;;;13.70;98.98
11053;BME280;55230;42.602;23.470;2022-10-10T06:05:12;94328.50;;;13.84;99.44
11053;BME280;55230;42.602;23.470;2022-10-10T06:07:38;94353.34;;;13.83;98.91
11053;BME280;55230;42.602;23.470;2022-10-10T06:10:06;94238.13;;;13.30;98.09
11053;BME280;55230;42.602;23.470;2022-10-10T06:12:34;94348.63;;;14.14;97.73
11053;BME280;55230;42.602;23.470;2022-10-10T06:15:01;94354.50;;;14.13;97.95
11053;BME280;55230;42.602;23.470;2022-10-10T06:17:28;93655.72;;;9.29;99.79
11053;BME280;55230;42.602;23.470;2022-10-10T06:19:55;94169.25;;;12.69;100.00
11053;BME280;55230;42.602;23.470;2022-10-10T06:22:21;94351.53;;;13.80;100.00
11053;BME280;55230;42.602;23.470;2022-10-10T06:24:48;94321.72;;;13.19;100.00
11053;BME280;55230;42.602;23.470;2022-10-10T06:27:15;94355.19;;;13.25;100.00
11053;BME280;55230;42.602;23.470;2022-10-10T06:29:43;94358.34;;;13.54;100.00
11053;BME280;55230;42.602;23.470;2022-10-10T06:32:10;94304.88;;;12.71;100.00
11053;BME280;55230;42.602;23.470;2022-10-10T06:34:37;94247.44;;;12.55;100.00
11053;BME280;55230;42.602;23.470;2022-10-10T06:37:03;94303.91;;;12.87;100.00
11053;BME280;55230;42.602;23.470;2022-10-10T06:39:30;93835.69;;;9.77;100.00
11053;BME280;55230;42.602;23.470;2022-10-10T06:41:57;94366.09;;;13.43;100.00
11053;BME280;55230;42.602;23.470;2022-10-10T06:44:24;94252.66;;;12.49;100.00
11053;BME280;55230;42.602;23.470;2022-10-10T06:46:52;94366.34;;;13.27;100.00
11053;BME280;55230;42.602;23.470;2022-10-10T06:49:19;94316.69;;;13.08;100.00
11053;BME280;55230;42.602;23.470;2022-10-10T06:51:46;94290.88;;;12.95;100.00
11053;BME280;55230;42.602;23.470;2022-10-10T06:54:12;94354.69;;;13.48;100.00
11053;BME280;55230;42.602;23.470;2022-10-10T06:56:39;94379.06;;;13.39;100.00
11053;BME280;55230;42.602;23.470;2022-10-10T06:59:06;94318.09;;;13.13;100.00
11053;BME280;55230;42.602;23.470;2022-10-10T07:01:33;94302.63;;;13.22;100.00
11053;BME280;55230;42.602;23.470;2022-10-10T07:04:01;94292.84;;;12.94;100.00
11053;BME280;55230;42.602;23.470;2022-10-10T07:06:28;94317.47;;;13.39;100.00
11053;BME280;55230;42.602;23.470;2022-10-10T07:08:54;94236.91;;;13.31;100.00
11053;BME280;55230;42.602;23.470;2022-10-10T07:11:22;94087.94;;;12.73;97.47
11053;BME280;55230;42.602;23.470;2022-10-10T07:13:49;94273.34;;;14.72;92.32
11053;BME280;55230;42.602;23.470;2022-10-10T07:16:18;94389.78;;;15.34;90.10
11053;BME280;55230;42.602;23.470;2022-10-10T07:18:44;94290.13;;;15.40;87.24
11053;BME280;55230;42.602;23.470;2022-10-10T07:21:13;94395.72;;;15.92;82.38
11053;BME280;55230;42.602;23.470;2022-10-10T07:23:40;94239.09;;;14.66;86.07
11053;BME280;55230;42.602;23.470;2022-10-10T07:26:09;94389.13;;;15.66;84.73
11053;BME280;55230;42.602;23.470;2022-10-10T07:28:37;94293.97;;;14.88;85.47
11053;BME280;55230;42.602;23.470;2022-10-10T07:31:06;94321.88;;;15.06;88.40
11053;BME280;55230;42.602;23.470;2022-10-10T07:33:35;94380.72;;;15.19;88.13
11053;BME280;55230;42.602;23.470;2022-10-10T07:36:02;94393.13;;;15.29;87.87
11053;BME280;55230;42.602;23.470;2022-10-10T07:38:30;94381.94;;;15.27;88.86
11053;BME280;55230;42.602;23.470;2022-10-10T07:40:57;94232.19;;;14.38;89.06
11053;BME280;55230;42.602;23.470;2022-10-10T07:43:24;94126.69;;;13.76;87.84
11053;BME280;55230;42.602;23.470;2022-10-10T07:45:51;94328.78;;;15.26;86.48
11053;BME280;55230;42.602;23.470;2022-10-10T07:48:17;94309.50;;;14.96;85.27
11053;BME280;55230;42.602;23.470;2022-10-10T07:50:44;94372.56;;;15.55;85.33
11053;BME280;55230;42.602;23.470;2022-10-10T07:53:11;94331.25;;;15.05;85.39
11053;BME280;55230;42.602;23.470;2022-10-10T07:55:41;94293.84;;;14.91;86.97
11053;BME280;55230;42.602;23.470;2022-10-10T07:58:09;94178.22;;;14.22;86.73
11053;BME280;55230;42.602;23.470;2022-10-10T08:00:36;94409.50;;;15.79;83.98
11053;BME280;55230;42.602;23.470;2022-10-10T08:03:05;94371.75;;;15.72;85.55
11053;BME280;55230;42.602;23.470;2022-10-10T08:05:32;94379.22;;;15.95;83.96
11053;BME280;55230;42.602;23.470;2022-10-10T08:07:59;94380.50;;;16.18;84.38
11053;BME280;55230;42.602;23.470;2022-10-10T08:10:25;94239.72;;;15.30;84.08
11053;BME280;55230;42.602;23.470;2022-10-10T08:12:54;94370.09;;;16.40;84.04
11053;BME280;55230;42.602;23.470;2022-10-10T08:15:21;94461.34;;;16.68;81.16
11053;BME280;55230;42.602;23.470;2022-10-10T08:17:47;94409.06;;;16.55;80.77
11053;BME280;55230;42.602;23.470;2022-10-10T08:20:14;94357.13;;;16.02;81.45
11053;BME280;55230;42.602;23.470;2022-10-10T08:22:41;94389.00;;;16.67;80.13
11053;BME280;55230;42.602;23.470;2022-10-10T08:25:08;94382.41;;;16.59;81.61
11053;BME280;55230;42.602;23.470;2022-10-10T08:27:35;94378.53;;;16.51;80.95
11053;BME280;55230;42.602;23.470;2022-10-10T08:30:04;94384.63;;;16.46;81.37
11053;BME280;55230;42.602;23.470;2022-10-10T08:32:31;94379.19;;;17.22;79.82
11053;BME280;55230;42.602;23.470;2022-10-10T08:34:58;94384.34;;;17.88;76.96
11053;BME280;55230;42.602;23.470;2022-10-10T08:37:24;94387.88;;;18.23;72.30
11053;BME280;55230;42.602;23.470;2022-10-10T08:39:51;94394.25;;;18.34;71.09
11053;BME280;55230;42.602;23.470;2022-10-10T08:42:30;94377.13;;;18.89;66.36
11053;BME280;55230;42.602;23.470;2022-10-10T08:45:03;94379.50;;;19.21;63.30
11053;BME280;55230;42.602;23.470;2022-10-10T08:47:37;94376.09;;;19.06;62.70
11053;BME280;55230;42.602;23.470;2022-10-10T08:50:14;94107.41;;;17.08;61.10
11053;BME280;55230;42.602;23.470;2022-10-10T08:52:47;94377.66;;;19.13;60.00
11053;BME280;55230;42.602;23.470;2022-10-10T08:55:18;94386.78;;;19.04;60.12
11053;BME280;55230;42.602;23.470;2022-10-10T08:57:50;94379.09;;;19.28;59.02
11053;BME280;55230;42.602;23.470;2022-10-10T09:00:20;94389.75;;;19.26;57.44
11053;BME280;55230;42.602;23.470;2022-10-10T09:02:50;94328.94;;;19.11;58.79
11053;BME280;55230;42.602;23.470;2022-10-10T09:05:20;94398.78;;;19.12;56.49
11053;BME280;55230;42.602;23.470;2022-10-10T09:08:00;94331.00;;;18.76;58.39
11053;BME280;55230;42.602;23.470;2022-10-10T09:10:31;94380.75;;;19.20;56.95
11053;BME280;55230;42.602;23.470;2022-10-10T09:13:11;94384.50;;;19.43;57.84
11053;BME280;55230;42.602;23.470;2022-10-10T09:15:51;94391.13;;;19.16;57.32
11053;BME280;55230;42.602;23.470;2022-10-10T09:18:29;94370.84;;;18.63;57.81
11053;BME280;55230;42.602;23.470;2022-10-10T09:21:04;94352.41;;;18.58;58.12
11053;BME280;55230;42.602;23.470;2022-10-10T09:23:37;94392.94;;;18.99;57.02
11053;BME280;55230;42.602;23.470;2022-10-10T09:26:08;94259.97;;;17.81;58.58
11053;BME280;55230;42.602;23.470;2022-10-10T09:28:38;94132.59;;;16.45;58.64
11053;BME280;55230;42.602;23.470;2022-10-10T09:31:11;94366.84;;;18.43;59.57
11053;BME280;55230;42.602;23.470;2022-10-10T09:33:43;94402.16;;;18.47;61.38
11053;BME280;55230;42.602;23.470;2022-10-10T09:36:14;94405.88;;;18.64;58.25
11053;BME280;55230;42.602;23.470;2022-10-10T09:38:46;94400.69;;;18.66;58.25
11053;BME280;55230;42.602;23.470;2022-10-10T09:41:17;94225.72;;;17.16;57.50
11053;BME280;55230;42.602;23.470;2022-10-10T09:43:46;94396.34;;;18.94;58.55
11053;BME280;55230;42.602;23.470;2022-10-10T09:46:14;94298.38;;;18.47;56.92
11053;BME280;55230;42.602;23.470;2022-10-10T09:48:41;94349.53;;;19.07;55.39
11053;BME280;55230;42.602;23.470;2022-10-10T09:51:12;94343.56;;;19.08;55.29
11053;BME280;55230;42.602;23.470;2022-10-10T09:53:40;94330.19;;;18.90;55.13
11053;BME280;55230;42.602;23.470;2022-10-10T09:56:14;94404.72;;;19.51;54.89
11053;BME280;55230;42.602;23.470;2022-10-10T09:58:44;94300.97;;;19.22;54.60
11053;BME280;55230;42.602;23.470;2022-10-10T10:01:13;94310.19;;;19.76;52.38
11053;BME280;55230;42.602;23.470;2022-10-10T10:03:42;94388.22;;;20.22;51.86
11053;BME280;55230;42.602;23.470;2022-10-10T10:06:12;94241.47;;;19.74;52.38
11053;BME280;55230;42.602;23.470;2022-10-10T10:08:40;94399.09;;;20.90;50.57
11053;BME280;55230;42.602;23.470;2022-10-10T10:11:26;94395.25;;;21.13;49.83
11053;BME280;55230;42.602;23.470;2022-10-10T10:13:55;94390.81;;;21.32;51.70
11053;BME280;55230;42.602;23.470;2022-10-10T10:16:32;94181.47;;;20.07;51.40
11053;BME280;55230;42.602;23.470;2022-10-10T10:19:00;94390.88;;;21.54;50.44
11053;BME280;55230;42.602;23.470;2022-10-10T10:21:29;94390.91;;;21.65;48.76
11053;BME280;55230;42.602;23.470;2022-10-10T10:23:58;94383.63;;;21.46;48.43
11053;BME280;55230;42.602;23.470;2022-10-10T10:26:28;94390.69;;;20.99;48.83
11053;BME280;55230;42.602;23.470;2022-10-10T10:28:56;94339.13;;;20.61;49.38
11053;BME280;55230;42.602;23.470;2022-10-10T10:31:43;94382.16;;;20.97;50.21
11053;BME280;55230;42.602;23.470;2022-10-10T10:34:31;94306.25;;;20.61;49.45
11053;BME280;55230;42.602;23.470;2022-10-10T10:37:10;94376.31;;;21.15;49.78
11053;BME280;55230;42.602;23.470;2022-10-10T10:39:49;94357.84;;;20.68;51.56
11053;BME280;55230;42.602;23.470;2022-10-10T10:42:31;94377.69;;;20.94;51.13
11053;BME280;55230;42.602;23.470;2022-10-10T10:45:09;94378.38;;;20.84;47.93
11053;BME280;55230;42.602;23.470;2022-10-10T10:47:47;94376.69;;;20.49;50.76
11053;BME280;55230;42.602;23.470;2022-10-10T10:50:39;94379.47;;;20.55;51.76
11053;BME280;55230;42.602;23.470;2022-10-10T10:53:16;94307.31;;;19.96;52.71
11053;BME280;55230;42.602;23.470;2022-10-10T10:55:50;94326.19;;;20.19;52.31
11053;BME280;55230;42.602;23.470;2022-10-10T10:58:33;94376.28;;;20.62;51.29
11053;BME280;55230;42.602;23.470;2022-10-10T11:01:12;94371.63;;;20.06;52.38
11053;BME280;55230;42.602;23.470;2022-10-10T11:03:49;94369.31;;;19.99;53.80
11053;BME280;55230;42.602;23.470;2022-10-10T11:06:33;94322.28;;;19.69;55.58
11053;BME280;55230;42.602;23.470;2022-10-10T11:09:07;94362.78;;;19.91;53.75
11053;BME280;55230;42.602;23.470;2022-10-10T11:11:49;94233.31;;;18.91;54.45
11053;BME280;55230;42.602;23.470;2022-10-10T11:14:32;94356.44;;;19.74;54.34
11053;BME280;55230;42.602;23.470;2022-10-10T11:17:08;94347.94;;;19.72;54.79
11053;BME280;55230;42.602;23.470;2022-10-10T11:19:41;94292.56;;;19.05;54.95
11053;BME280;55230;42.602;23.470;2022-10-10T11:22:15;94343.19;;;19.67;57.83
11053;BME280;55230;42.602;23.470;2022-10-10T11:24:49;94337.72;;;19.98;55.23
11053;BME280;55230;42.602;23.470;2022-10-10T11:27:21;94337.56;;;20.12;53.87
11053;BME280;55230;42.602;23.470;2022-10-10T11:29:57;94337.19;;;20.25;54.38
11053;BME280;55230;42.602;23.470;2022-10-10T11:32:29;94345.47;;;20.36;52.93
11053;BME280;55230;42.602;23.470;2022-10-10T11:35:10;94261.25;;;19.89;53.78
11053;BME280;55230;42.602;23.470;2022-10-10T11:37:44;94051.28;;;18.42;53.69
11053;BME280;55230;42.602;23.470;2022-10-10T11:40:24;94325.19;;;20.17;52.59
11053;BME280;55230;42.602;23.470;2022-10-10T11:42:55;94327.91;;;20.17;55.35
11053;BME280;55230;42.602;23.470;2022-10-10T11:45:27;94193.19;;;19.34;53.94
11053;BME280;55230;42.602;23.470;2022-10-10T11:48:00;94324.28;;;20.31;53.16
11053;BME280;55230;42.602;23.470;2022-10-10T11:50:33;94239.38;;;19.58;54.31
11053;BME280;55230;42.602;23.470;2022-10-10T11:53:10;94325.38;;;20.13;53.70
11053;BME280;55230;42.602;23.470;2022-10-10T11:55:44;94315.44;;;20.16;53.52
11053;BME280;55230;42.602;23.470;2022-10-10T11:58:30;94308.75;;;20.17;53.88
11053;BME280;55230;42.602;23.470;2022-10-10T12:01:03;94305.78;;;20.20;53.45
11053;BME280;55230;42.602;23.470;2022-10-10T12:03:31;94219.94;;;19.55;53.57
11053;BME280;55230;42.602;23.470;2022-10-10T12:06:05;94073.19;;;18.48;53.43
11053;BME280;55230;42.602;23.470;2022-10-10T12:08:39;94312.19;;;19.81;54.03
11053;BME280;55230;42.602;23.470;2022-10-10T12:11:14;94287.44;;;20.01;52.73
11053;BME280;55230;42.602;23.470;2022-10-10T12:13:44;94296.19;;;20.05;52.70
11053;BME280;55230;42.602;23.470;2022-10-10T12:16:14;94285.19;;;19.99;53.29
11053;BME280;55230;42.602;23.470;2022-10-10T12:18:44;94292.03;;;20.15;53.88
11053;BME280;55230;42.602;23.470;2022-10-10T12:21:13;94295.88;;;20.28;53.10
11053;BME280;55230;42.602;23.470;2022-10-10T12:23:43;94292.97;;;20.43;52.55
11053;BME280;55230;42.602;23.470;2022-10-10T12:26:14;94291.44;;;20.42;52.38
11053;BME280;55230;42.602;23.470;2022-10-10T12:29:00;94206.75;;;19.91;51.27
11053;BME280;55230;42.602;23.470;2022-10-10T12:31:29;94279.31;;;20.54;51.42
11053;BME280;55230;42.602;23.470;2022-10-10T12:34:09;94277.75;;;20.42;51.60
11053;BME280;55230;42.602;23.470;2022-10-10T12:37:10;94279.38;;;20.76;51.13
11053;BME280;55230;42.602;23.470;2022-10-10T12:40:18;94275.78;;;21.12;49.99
11053;BME280;55230;42.602;23.470;2022-10-10T12:43:20;94265.09;;;21.31;49.33
11053;BME280;55230;42.602;23.470;2022-10-10T12:46:07;94276.34;;;21.55;47.63
11053;BME280;55230;42.602;23.470;2022-10-10T12:48:39;94282.06;;;21.40;47.77
11053;BME280;55230;42.602;23.470;2022-10-10T12:51:17;94269.34;;;21.21;48.46
11053;BME280;55230;42.602;23.470;2022-10-10T12:53:49;94264.06;;;21.06;48.02
11053;BME280;55230;42.602;23.470;2022-10-10T12:56:31;94191.63;;;20.54;47.23
11053;BME280;55230;42.602;23.470;2022-10-10T12:58:59;94272.06;;;21.26;47.06
11053;BME280;55230;42.602;23.470;2022-10-10T13:01:29;94172.00;;;20.83;46.92
11053;BME280;55230;42.602;23.470;2022-10-10T13:03:58;94272.84;;;21.49;46.91
11053;BME280;55230;42.602;23.470;2022-10-10T13:06:30;94264.09;;;21.28;48.71